sensor_id;sensor_type;location;lat;lon;timestamp;P1;durP1;ratioP1;P2;durP2;ratioP2
9102;SDS011;4587;51.434;6.788;2023-07-13T00:00:37;5.97;;;1.27;;
9102;SDS011;4587;51.434;6.788;2023-07-13T00:03:03;4.87;;;1.33;;
9102;SDS011;4587;51.434;6.788;2023-07-13T00:05:29;5.93;;;1.50;;
9102;SDS011;4587;51.434;6.788;2023-07-13T00:07:55;5.53;;;1.60;;
9102;SDS011;4587;51.434;6.788;2023-07-13T00:10:21;5.07;;;1.60;;
9102;SDS011;4587;51.434;6.788;2023-07-13T00:12:47;6.63;;;1.50;;
9102;SDS011;4587;51.434;6.788;2023-07-13T00:15:15;3.90;;;1.43;;
9102;SDS011;4587;51.434;6.788;2023-07-13T00:17:48;4.10;;;1.27;;
9102;SDS011;4587;51.434;6.788;2023-07-13T00:20:18;6.23;;;1.30;;
9102;SDS011;4587;51.434;6.788;2023-07-13T00:22:46;3.00;;;1.17;;
9102;SDS011;4587;51.434;6.788;2023-07-13T00:25:13;6.67;;;1.43;;
9102;SDS011;4587;51.434;6.788;2023-07-13T00:27:39;5.70;;;1.40;;
9102;SDS011;4587;51.434;6.788;2023-07-13T00:40:13;4.60;;;1.40;;
9102;SDS011;4587;51.434;6.788;2023-07-13T00:42:39;3.40;;;1.20;;
9102;SDS011;4587;51.434;6.788;2023-07-13T00:46:02;6.73;;;1.43;;
9102;SDS011;4587;51.434;6.788;2023-07-13T00:47:51;6.13;;;1.50;;
9102;SDS011;4587;51.434;6.788;2023-07-13T00:50:17;4.63;;;1.10;;
9102;SDS011;4587;51.434;6.788;2023-07-13T00:52:46;4.17;;;1.30;;
9102;SDS011;4587;51.434;6.788;2023-07-13T00:55:14;5.27;;;1.67;;
9102;SDS011;4587;51.434;6.788;2023-07-13T00:57:41;4.00;;;1.53;;
9102;SDS011;4587;51.434;6.788;2023-07-13T01:00:08;4.47;;;1.20;;
9102;SDS011;4587;51.434;6.788;2023-07-13T01:02:38;5.43;;;1.70;;
9102;SDS011;4587;51.434;6.788;2023-07-13T01:05:10;4.33;;;1.37;;
9102;SDS011;4587;51.434;6.788;2023-07-13T01:07:37;5.47;;;1.43;;
9102;SDS011;4587;51.434;6.788;2023-07-13T01:10:03;7.90;;;1.73;;
9102;SDS011;4587;51.434;6.788;2023-07-13T01:12:29;4.70;;;1.60;;
9102;SDS011;4587;51.434;6.788;2023-07-13T01:14:59;4.93;;;1.53;;
9102;SDS011;4587;51.434;6.788;2023-07-13T01:17:26;5.70;;;1.47;;
9102;SDS011;4587;51.434;6.788;2023-07-13T01:19:53;5.73;;;1.70;;
9102;SDS011;4587;51.434;6.788;2023-07-13T01:22:19;5.97;;;1.70;;
9102;SDS011;4587;51.434;6.788;2023-07-13T01:24:50;4.70;;;1.57;;
9102;SDS011;4587;51.434;6.788;2023-07-13T01:27:17;6.40;;;1.63;;
9102;SDS011;4587;51.434;6.788;2023-07-13T01:29:46;3.93;;;1.50;;
9102;SDS011;4587;51.434;6.788;2023-07-13T01:32:16;5.17;;;1.53;;
9102;SDS011;4587;51.434;6.788;2023-07-13T01:34:49;3.47;;;1.43;;
9102;SDS011;4587;51.434;6.788;2023-07-13T01:37:16;3.60;;;1.40;;
9102;SDS011;4587;51.434;6.788;2023-07-13T01:39:42;6.20;;;1.57;;
9102;SDS011;4587;51.434;6.788;2023-07-13T01:42:07;4.77;;;1.50;;
9102;SDS011;4587;51.434;6.788;2023-07-13T01:44:33;3.67;;;1.43;;
9102;SDS011;4587;51.434;6.788;2023-07-13T01:46:59;4.63;;;1.60;;
9102;SDS011;4587;51.434;6.788;2023-07-13T01:49:25;4.57;;;1.80;;
9102;SDS011;4587;51.434;6.788;2023-07-13T01:51:51;3.43;;;1.33;;
9102;SDS011;4587;51.434;6.788;2023-07-13T01:54:16;6.53;;;1.60;;
9102;SDS011;4587;51.434;6.788;2023-07-13T01:56:42;5.07;;;1.57;;
9102;SDS011;4587;51.434;6.788;2023-07-13T01:59:08;7.63;;;1.43;;
9102;SDS011;4587;51.434;6.788;2023-07-13T02:01:34;4.67;;;1.33;;
9102;SDS011;4587;51.434;6.788;2023-07-13T02:03:59;4.80;;;1.63;;
9102;SDS011;4587;51.434;6.788;2023-07-13T02:06:25;5.77;;;1.40;;
9102;SDS011;4587;51.434;6.788;2023-07-13T02:08:51;6.63;;;1.60;;
9102;SDS011;4587;51.434;6.788;2023-07-13T02:11:16;3.73;;;1.50;;
9102;SDS011;4587;51.434;6.788;2023-07-13T02:13:42;5.23;;;1.70;;
9102;SDS011;4587;51.434;6.788;2023-07-13T02:16:08;4.93;;;1.50;;
9102;SDS011;4587;51.434;6.788;2023-07-13T02:18:33;4.60;;;1.70;;
9102;SDS011;4587;51.434;6.788;2023-07-13T02:20:59;3.57;;;1.40;;
9102;SDS011;4587;51.434;6.788;2023-07-13T02:23:25;4.27;;;1.60;;
9102;SDS011;4587;51.434;6.788;2023-07-13T02:25:54;6.37;;;1.90;;
9102;SDS011;4587;51.434;6.788;2023-07-13T02:28:23;4.93;;;1.70;;
9102;SDS011;4587;51.434;6.788;2023-07-13T02:30:49;5.33;;;1.70;;
9102;SDS011;4587;51.434;6.788;2023-07-13T02:33:15;5.50;;;2.20;;
9102;SDS011;4587;51.434;6.788;2023-07-13T02:35:40;7.10;;;2.10;;
9102;SDS011;4587;51.434;6.788;2023-07-13T02:38:06;3.40;;;1.53;;
9102;SDS011;4587;51.434;6.788;2023-07-13T02:40:32;5.63;;;1.70;;
9102;SDS011;4587;51.434;6.788;2023-07-13T02:43:01;5.80;;;1.87;;
9102;SDS011;4587;51.434;6.788;2023-07-13T02:45:27;7.03;;;1.70;;
9102;SDS011;4587;51.434;6.788;2023-07-13T02:47:53;6.03;;;1.40;;
9102;SDS011;4587;51.434;6.788;2023-07-13T02:50:19;5.13;;;1.60;;
9102;SDS011;4587;51.434;6.788;2023-07-13T02:52:45;4.27;;;1.77;;
9102;SDS011;4587;51.434;6.788;2023-07-13T02:55:10;6.43;;;1.80;;
9102;SDS011;4587;51.434;6.788;2023-07-13T02:57:36;6.37;;;1.90;;
9102;SDS011;4587;51.434;6.788;2023-07-13T03:00:02;5.57;;;1.80;;
9102;SDS011;4587;51.434;6.788;2023-07-13T03:02:32;5.70;;;1.70;;
9102;SDS011;4587;51.434;6.788;2023-07-13T03:04:59;5.93;;;1.67;;
9102;SDS011;4587;51.434;6.788;2023-07-13T03:07:24;5.20;;;1.60;;
9102;SDS011;4587;51.434;6.788;2023-07-13T03:09:54;4.13;;;1.67;;
9102;SDS011;4587;51.434;6.788;2023-07-13T03:12:21;4.80;;;1.60;;
9102;SDS011;4587;51.434;6.788;2023-07-13T03:14:47;4.10;;;1.57;;
9102;SDS011;4587;51.434;6.788;2023-07-13T03:17:15;5.03;;;1.77;;
9102;SDS011;4587;51.434;6.788;2023-07-13T03:19:40;5.23;;;1.63;;
9102;SDS011;4587;51.434;6.788;2023-07-13T03:22:06;3.93;;;1.60;;
9102;SDS011;4587;51.434;6.788;2023-07-13T03:24:32;6.67;;;1.90;;
9102;SDS011;4587;51.434;6.788;2023-07-13T03:26:58;7.57;;;1.80;;
9102;SDS011;4587;51.434;6.788;2023-07-13T03:29:26;6.20;;;1.80;;
9102;SDS011;4587;51.434;6.788;2023-07-13T03:31:52;5.70;;;1.90;;
9102;SDS011;4587;51.434;6.788;2023-07-13T03:34:17;6.27;;;1.80;;
9102;SDS011;4587;51.434;6.788;2023-07-13T03:36:43;4.57;;;1.87;;
9102;SDS011;4587;51.434;6.788;2023-07-13T03:39:08;6.33;;;2.07;;
9102;SDS011;4587;51.434;6.788;2023-07-13T03:41:34;7.00;;;2.17;;
9102;SDS011;4587;51.434;6.788;2023-07-13T03:44:00;5.27;;;1.93;;
9102;SDS011;4587;51.434;6.788;2023-07-13T03:46:26;6.97;;;2.00;;
9102;SDS011;4587;51.434;6.788;2023-07-13T03:48:52;6.17;;;1.97;;
9102;SDS011;4587;51.434;6.788;2023-07-13T03:51:17;4.50;;;1.73;;
9102;SDS011;4587;51.434;6.788;2023-07-13T03:53:44;7.00;;;2.00;;
9102;SDS011;4587;51.434;6.788;2023-07-13T03:56:11;5.40;;;1.63;;
9102;SDS011;4587;51.434;6.788;2023-07-13T03:58:40;6.00;;;1.90;;
9102;SDS011;4587;51.434;6.788;2023-07-13T04:01:07;4.17;;;1.90;;
9102;SDS011;4587;51.434;6.788;2023-07-13T04:03:34;5.10;;;1.93;;
9102;SDS011;4587;51.434;6.788;2023-07-13T04:06:00;6.70;;;1.90;;
9102;SDS011;4587;51.434;6.788;2023-07-13T04:08:28;7.90;;;2.03;;
9102;SDS011;4587;51.434;6.788;2023-07-13T04:10:55;6.33;;;1.93;;
9102;SDS011;4587;51.434;6.788;2023-07-13T04:13:22;6.17;;;1.90;;
9102;SDS011;4587;51.434;6.788;2023-07-13T04:15:48;7.17;;;1.97;;
9102;SDS011;4587;51.434;6.788;2023-07-13T04:18:14;7.50;;;2.20;;
9102;SDS011;4587;51.434;6.788;2023-07-13T04:20:39;7.20;;;1.80;;
9102;SDS011;4587;51.434;6.788;2023-07-13T04:23:05;6.67;;;1.60;;
9102;SDS011;4587;51.434;6.788;2023-07-13T04:25:30;4.40;;;1.63;;
9102;SDS011;4587;51.434;6.788;2023-07-13T04:27:56;5.23;;;1.60;;
9102;SDS011;4587;51.434;6.788;2023-07-13T04:30:22;6.23;;;1.70;;
9102;SDS011;4587;51.434;6.788;2023-07-13T04:32:48;5.20;;;1.70;;
9102;SDS011;4587;51.434;6.788;2023-07-13T04:35:15;4.63;;;1.63;;
9102;SDS011;4587;51.434;6.788;2023-07-13T04:37:41;4.40;;;1.90;;
9102;SDS011;4587;51.434;6.788;2023-07-13T04:40:06;3.63;;;1.70;;
9102;SDS011;4587;51.434;6.788;2023-07-13T04:42:36;5.33;;;2.07;;
9102;SDS011;4587;51.434;6.788;2023-07-13T04:45:02;7.27;;;2.00;;
9102;SDS011;4587;51.434;6.788;2023-07-13T04:47:29;5.80;;;1.93;;
9102;SDS011;4587;51.434;6.788;2023-07-13T04:49:55;5.67;;;2.10;;
9102;SDS011;4587;51.434;6.788;2023-07-13T04:52:22;8.40;;;2.03;;
9102;SDS011;4587;51.434;6.788;2023-07-13T04:54:48;8.57;;;2.13;;
9102;SDS011;4587;51.434;6.788;2023-07-13T04:57:14;11.57;;;2.13;;
9102;SDS011;4587;51.434;6.788;2023-07-13T04:59:39;6.97;;;2.13;;
9102;SDS011;4587;51.434;6.788;2023-07-13T05:02:05;5.50;;;2.10;;
9102;SDS011;4587;51.434;6.788;2023-07-13T05:04:30;6.93;;;2.40;;
9102;SDS011;4587;51.434;6.788;2023-07-13T05:06:56;6.60;;;2.20;;
9102;SDS011;4587;51.434;6.788;2023-07-13T05:09:22;8.33;;;2.40;;
9102;SDS011;4587;51.434;6.788;2023-07-13T05:11:47;5.37;;;2.00;;
9102;SDS011;4587;51.434;6.788;2023-07-13T05:14:13;8.03;;;2.23;;
9102;SDS011;4587;51.434;6.788;2023-07-13T05:16:40;9.33;;;2.27;;
9102;SDS011;4587;51.434;6.788;2023-07-13T05:19:06;7.53;;;2.30;;
9102;SDS011;4587;51.434;6.788;2023-07-13T05:21:31;6.37;;;2.03;;
9102;SDS011;4587;51.434;6.788;2023-07-13T05:23:57;10.07;;;2.67;;
9102;SDS011;4587;51.434;6.788;2023-07-13T05:26:22;7.93;;;2.40;;
9102;SDS011;4587;51.434;6.788;2023-07-13T05:28:48;7.40;;;2.60;;
9102;SDS011;4587;51.434;6.788;2023-07-13T05:31:16;9.10;;;2.60;;
9102;SDS011;4587;51.434;6.788;2023-07-13T05:33:41;8.13;;;1.90;;
9102;SDS011;4587;51.434;6.788;2023-07-13T05:36:07;6.80;;;2.53;;
9102;SDS011;4587;51.434;6.788;2023-07-13T05:38:33;9.47;;;2.50;;
9102;SDS011;4587;51.434;6.788;2023-07-13T05:40:59;8.43;;;2.70;;
9102;SDS011;4587;51.434;6.788;2023-07-13T05:43:25;8.30;;;2.20;;
9102;SDS011;4587;51.434;6.788;2023-07-13T05:45:52;6.07;;;2.33;;
9102;SDS011;4587;51.434;6.788;2023-07-13T05:48:18;6.93;;;2.43;;
9102;SDS011;4587;51.434;6.788;2023-07-13T05:50:44;7.13;;;2.67;;
9102;SDS011;4587;51.434;6.788;2023-07-13T05:53:09;9.37;;;2.60;;
9102;SDS011;4587;51.434;6.788;2023-07-13T05:55:35;6.43;;;2.40;;
9102;SDS011;4587;51.434;6.788;2023-07-13T05:58:01;6.73;;;2.47;;
9102;SDS011;4587;51.434;6.788;2023-07-13T06:00:26;8.37;;;2.40;;
9102;SDS011;4587;51.434;6.788;2023-07-13T06:02:52;7.87;;;2.50;;
9102;SDS011;4587;51.434;6.788;2023-07-13T06:05:17;10.93;;;2.77;;
9102;SDS011;4587;51.434;6.788;2023-07-13T06:07:43;9.63;;;2.60;;
9102;SDS011;4587;51.434;6.788;2023-07-13T06:10:09;10.73;;;3.10;;
9102;SDS011;4587;51.434;6.788;2023-07-13T06:12:35;6.03;;;2.30;;
9102;SDS011;4587;51.434;6.788;2023-07-13T06:15:01;13.13;;;2.63;;
9102;SDS011;4587;51.434;6.788;2023-07-13T06:17:27;6.43;;;2.60;;
9102;SDS011;4587;51.434;6.788;2023-07-13T06:19:53;6.10;;;2.50;;
9102;SDS011;4587;51.434;6.788;2023-07-13T06:22:18;8.70;;;2.70;;
9102;SDS011;4587;51.434;6.788;2023-07-13T06:24:44;7.63;;;2.97;;
9102;SDS011;4587;51.434;6.788;2023-07-13T06:27:09;8.00;;;3.00;;
9102;SDS011;4587;51.434;6.788;2023-07-13T06:29:35;6.47;;;2.90;;
9102;SDS011;4587;51.434;6.788;2023-07-13T06:32:01;8.63;;;2.97;;
9102;SDS011;4587;51.434;6.788;2023-07-13T06:34:26;10.07;;;3.30;;
9102;SDS011;4587;51.434;6.788;2023-07-13T06:36:52;11.37;;;2.83;;
9102;SDS011;4587;51.434;6.788;2023-07-13T06:39:17;10.13;;;2.70;;
9102;SDS011;4587;51.434;6.788;2023-07-13T06:41:43;9.13;;;3.07;;
9102;SDS011;4587;51.434;6.788;2023-07-13T06:44:08;11.47;;;3.03;;
9102;SDS011;4587;51.434;6.788;2023-07-13T06:46:34;9.83;;;3.00;;
9102;SDS011;4587;51.434;6.788;2023-07-13T06:49:00;8.37;;;3.00;;
9102;SDS011;4587;51.434;6.788;2023-07-13T06:51:25;9.10;;;2.97;;
9102;SDS011;4587;51.434;6.788;2023-07-13T06:53:51;10.00;;;3.30;;
9102;SDS011;4587;51.434;6.788;2023-07-13T06:56:17;7.57;;;2.67;;
9102;SDS011;4587;51.434;6.788;2023-07-13T06:58:42;9.80;;;2.90;;
9102;SDS011;4587;51.434;6.788;2023-07-13T07:01:08;9.90;;;3.10;;
9102;SDS011;4587;51.434;6.788;2023-07-13T07:03:34;7.43;;;2.90;;
9102;SDS011;4587;51.434;6.788;2023-07-13T07:06:00;8.67;;;2.60;;
9102;SDS011;4587;51.434;6.788;2023-07-13T07:08:40;9.70;;;3.00;;
9102;SDS011;4587;51.434;6.788;2023-07-13T07:11:07;10.87;;;3.00;;
9102;SDS011;4587;51.434;6.788;2023-07-13T07:13:34;8.47;;;2.93;;
9102;SDS011;4587;51.434;6.788;2023-07-13T07:16:00;8.57;;;3.40;;
9102;SDS011;4587;51.434;6.788;2023-07-13T07:18:26;9.27;;;3.27;;
9102;SDS011;4587;51.434;6.788;2023-07-13T07:20:51;10.53;;;3.30;;
9102;SDS011;4587;51.434;6.788;2023-07-13T07:23:17;8.47;;;3.53;;
9102;SDS011;4587;51.434;6.788;2023-07-13T07:25:43;9.67;;;3.30;;
9102;SDS011;4587;51.434;6.788;2023-07-13T07:28:09;11.83;;;3.30;;
9102;SDS011;4587;51.434;6.788;2023-07-13T07:30:35;7.80;;;3.10;;
9102;SDS011;4587;51.434;6.788;2023-07-13T07:33:01;8.07;;;3.20;;
9102;SDS011;4587;51.434;6.788;2023-07-13T07:35:27;10.20;;;3.10;;
9102;SDS011;4587;51.434;6.788;2023-07-13T07:37:52;8.13;;;3.00;;
9102;SDS011;4587;51.434;6.788;2023-07-13T07:40:18;11.87;;;3.73;;
9102;SDS011;4587;51.434;6.788;2023-07-13T07:42:44;8.67;;;3.40;;
9102;SDS011;4587;51.434;6.788;2023-07-13T07:45:09;10.80;;;3.40;;
9102;SDS011;4587;51.434;6.788;2023-07-13T07:47:36;8.90;;;3.23;;
9102;SDS011;4587;51.434;6.788;2023-07-13T07:50:02;5.37;;;2.60;;
9102;SDS011;4587;51.434;6.788;2023-07-13T07:52:30;9.47;;;3.03;;
9102;SDS011;4587;51.434;6.788;2023-07-13T07:54:55;9.63;;;3.30;;
9102;SDS011;4587;51.434;6.788;2023-07-13T07:57:21;7.43;;;3.00;;
9102;SDS011;4587;51.434;6.788;2023-07-13T07:59:46;8.07;;;3.07;;
9102;SDS011;4587;51.434;6.788;2023-07-13T08:02:13;10.33;;;3.60;;
9102;SDS011;4587;51.434;6.788;2023-07-13T08:04:38;9.27;;;3.13;;
9102;SDS011;4587;51.434;6.788;2023-07-13T08:07:04;10.33;;;3.27;;
9102;SDS011;4587;51.434;6.788;2023-07-13T08:09:30;8.83;;;3.37;;
9102;SDS011;4587;51.434;6.788;2023-07-13T08:11:56;8.70;;;3.10;;
9102;SDS011;4587;51.434;6.788;2023-07-13T08:14:21;7.87;;;3.07;;
9102;SDS011;4587;51.434;6.788;2023-07-13T08:16:47;8.90;;;3.27;;
9102;SDS011;4587;51.434;6.788;2023-07-13T08:19:12;8.13;;;3.00;;
9102;SDS011;4587;51.434;6.788;2023-07-13T08:21:38;10.87;;;3.20;;
9102;SDS011;4587;51.434;6.788;2023-07-13T08:24:03;10.10;;;3.20;;
9102;SDS011;4587;51.434;6.788;2023-07-13T08:26:29;9.13;;;3.07;;
9102;SDS011;4587;51.434;6.788;2023-07-13T08:28:55;8.83;;;3.00;;
9102;SDS011;4587;51.434;6.788;2023-07-13T08:31:20;10.13;;;3.00;;
9102;SDS011;4587;51.434;6.788;2023-07-13T08:33:46;10.50;;;3.10;;
9102;SDS011;4587;51.434;6.788;2023-07-13T08:36:12;9.80;;;3.43;;
9102;SDS011;4587;51.434;6.788;2023-07-13T08:38:37;8.00;;;2.90;;
9102;SDS011;4587;51.434;6.788;2023-07-13T08:41:09;8.33;;;3.10;;
9102;SDS011;4587;51.434;6.788;2023-07-13T08:43:37;8.97;;;3.57;;
9102;SDS011;4587;51.434;6.788;2023-07-13T08:46:21;5.83;;;2.93;;
9102;SDS011;4587;51.434;6.788;2023-07-13T08:48:57;12.23;;;3.23;;
9102;SDS011;4587;51.434;6.788;2023-07-13T08:51:42;9.43;;;3.13;;
9102;SDS011;4587;51.434;6.788;2023-07-13T08:54:14;8.47;;;2.60;;
9102;SDS011;4587;51.434;6.788;2023-07-13T08:56:44;8.77;;;2.57;;
9102;SDS011;4587;51.434;6.788;2023-07-13T08:59:13;6.03;;;2.63;;
9102;SDS011;4587;51.434;6.788;2023-07-13T09:01:57;5.53;;;2.70;;
9102;SDS011;4587;51.434;6.788;2023-07-13T09:04:42;10.13;;;2.73;;
9102;SDS011;4587;51.434;6.788;2023-07-13T09:07:22;8.47;;;2.60;;
9102;SDS011;4587;51.434;6.788;2023-07-13T09:17:58;6.67;;;2.63;;
9102;SDS011;4587;51.434;6.788;2023-07-13T09:20:30;9.17;;;3.10;;
9102;SDS011;4587;51.434;6.788;2023-07-13T09:22:59;8.70;;;3.13;;
9102;SDS011;4587;51.434;6.788;2023-07-13T09:25:34;11.20;;;3.27;;
9102;SDS011;4587;51.434;6.788;2023-07-13T09:33:27;9.13;;;2.90;;
9102;SDS011;4587;51.434;6.788;2023-07-13T09:35:57;8.67;;;3.10;;
9102;SDS011;4587;51.434;6.788;2023-07-13T09:38:24;7.93;;;3.13;;
9102;SDS011;4587;51.434;6.788;2023-07-13T09:44:00;6.83;;;2.87;;
9102;SDS011;4587;51.434;6.788;2023-07-13T09:46:33;9.03;;;2.83;;
9102;SDS011;4587;51.434;6.788;2023-07-13T09:48:59;7.17;;;2.73;;
9102;SDS011;4587;51.434;6.788;2023-07-13T09:51:25;6.67;;;2.97;;
9102;SDS011;4587;51.434;6.788;2023-07-13T09:53:50;5.87;;;2.60;;
9102;SDS011;4587;51.434;6.788;2023-07-13T09:56:20;7.00;;;2.73;;
9102;SDS011;4587;51.434;6.788;2023-07-13T09:58:45;6.67;;;2.73;;
9102;SDS011;4587;51.434;6.788;2023-07-13T10:01:11;9.70;;;2.90;;
9102;SDS011;4587;51.434;6.788;2023-07-13T10:03:37;9.60;;;2.83;;
9102;SDS011;4587;51.434;6.788;2023-07-13T10:06:11;6.60;;;2.80;;
9102;SDS011;4587;51.434;6.788;2023-07-13T10:08:41;8.07;;;2.60;;
9102;SDS011;4587;51.434;6.788;2023-07-13T10:11:11;5.97;;;2.50;;
9102;SDS011;4587;51.434;6.788;2023-07-13T10:13:41;6.77;;;2.53;;
9102;SDS011;4587;51.434;6.788;2023-07-13T10:16:10;7.20;;;2.50;;
9102;SDS011;4587;51.434;6.788;2023-07-13T10:18:42;8.20;;;3.10;;
9102;SDS011;4587;51.434;6.788;2023-07-13T10:21:18;5.70;;;2.40;;
9102;SDS011;4587;51.434;6.788;2023-07-13T10:23:50;7.53;;;2.50;;
9102;SDS011;4587;51.434;6.788;2023-07-13T10:26:21;6.83;;;2.50;;
9102;SDS011;4587;51.434;6.788;2023-07-13T10:28:56;6.47;;;2.37;;
9102;SDS011;4587;51.434;6.788;2023-07-13T10:31:25;8.37;;;2.67;;
9102;SDS011;4587;51.434;6.788;2023-07-13T10:33:51;9.27;;;2.70;;
9102;SDS011;4587;51.434;6.788;2023-07-13T10:36:20;8.40;;;2.67;;
9102;SDS011;4587;51.434;6.788;2023-07-13T10:38:54;8.47;;;2.70;;
9102;SDS011;4587;51.434;6.788;2023-07-13T10:41:24;7.50;;;2.60;;
9102;SDS011;4587;51.434;6.788;2023-07-13T10:43:52;6.60;;;2.40;;
9102;SDS011;4587;51.434;6.788;2023-07-13T10:46:20;6.43;;;2.20;;
9102;SDS011;4587;51.434;6.788;2023-07-13T10:48:51;9.67;;;2.57;;
9102;SDS011;4587;51.434;6.788;2023-07-13T10:51:19;6.13;;;2.80;;
9102;SDS011;4587;51.434;6.788;2023-07-13T10:53:46;6.73;;;2.43;;
9102;SDS011;4587;51.434;6.788;2023-07-13T10:56:28;7.70;;;2.53;;
9102;SDS011;4587;51.434;6.788;2023-07-13T10:59:02;4.97;;;2.20;;
9102;SDS011;4587;51.434;6.788;2023-07-13T11:04:25;6.87;;;2.50;;
9102;SDS011;4587;51.434;6.788;2023-07-13T11:06:57;5.23;;;2.60;;
9102;SDS011;4587;51.434;6.788;2023-07-13T11:09:37;8.87;;;2.90;;
9102;SDS011;4587;51.434;6.788;2023-07-13T11:12:10;6.77;;;2.30;;
9102;SDS011;4587;51.434;6.788;2023-07-13T11:15:13;5.97;;;2.23;;
9102;SDS011;4587;51.434;6.788;2023-07-13T11:17:53;5.80;;;2.43;;
9102;SDS011;4587;51.434;6.788;2023-07-13T11:20:33;5.77;;;2.00;;
9102;SDS011;4587;51.434;6.788;2023-07-13T11:25:38;5.53;;;2.13;;
9102;SDS011;4587;51.434;6.788;2023-07-13T11:28:06;6.47;;;1.73;;
9102;SDS011;4587;51.434;6.788;2023-07-13T11:30:38;4.33;;;1.70;;
9102;SDS011;4587;51.434;6.788;2023-07-13T11:33:10;4.47;;;1.97;;
9102;SDS011;4587;51.434;6.788;2023-07-13T11:38:22;7.95;;;2.03;;
9102;SDS011;4587;51.434;6.788;2023-07-13T11:41:03;5.82;;;2.13;;
9102;SDS011;4587;51.434;6.788;2023-07-13T11:43:44;5.87;;;2.20;;
9102;SDS011;4587;51.434;6.788;2023-07-13T11:46:15;5.28;;;2.03;;
9102;SDS011;4587;51.434;6.788;2023-07-13T11:48:45;5.63;;;2.03;;
9102;SDS011;4587;51.434;6.788;2023-07-13T11:51:16;5.63;;;2.00;;
9102;SDS011;4587;51.434;6.788;2023-07-13T11:53:47;5.53;;;1.93;;
9102;SDS011;4587;51.434;6.788;2023-07-13T11:56:16;6.97;;;2.00;;
9102;SDS011;4587;51.434;6.788;2023-07-13T11:58:42;3.30;;;1.67;;
9102;SDS011;4587;51.434;6.788;2023-07-13T12:01:13;4.93;;;1.90;;
9102;SDS011;4587;51.434;6.788;2023-07-13T12:03:47;6.13;;;1.83;;
9102;SDS011;4587;51.434;6.788;2023-07-13T12:06:46;3.57;;;1.87;;
9102;SDS011;4587;51.434;6.788;2023-07-13T12:09:11;3.53;;;1.63;;
9102;SDS011;4587;51.434;6.788;2023-07-13T12:11:40;4.20;;;1.80;;
9102;SDS011;4587;51.434;6.788;2023-07-13T12:14:17;5.80;;;2.10;;
9102;SDS011;4587;51.434;6.788;2023-07-13T12:16:44;4.63;;;1.97;;
9102;SDS011;4587;51.434;6.788;2023-07-13T12:19:17;3.97;;;1.70;;
9102;SDS011;4587;51.434;6.788;2023-07-13T12:21:47;4.73;;;1.93;;
9102;SDS011;4587;51.434;6.788;2023-07-13T12:24:15;4.70;;;2.10;;
9102;SDS011;4587;51.434;6.788;2023-07-13T12:26:42;5.40;;;1.87;;
9102;SDS011;4587;51.434;6.788;2023-07-13T12:29:11;7.03;;;2.10;;
9102;SDS011;4587;51.434;6.788;2023-07-13T12:31:41;6.23;;;1.70;;
9102;SDS011;4587;51.434;6.788;2023-07-13T12:34:16;3.90;;;1.60;;
9102;SDS011;4587;51.434;6.788;2023-07-13T12:39:32;3.77;;;1.77;;
9102;SDS011;4587;51.434;6.788;2023-07-13T12:42:22;5.57;;;1.90;;
9102;SDS011;4587;51.434;6.788;2023-07-13T12:44:54;7.63;;;1.70;;
9102;SDS011;4587;51.434;6.788;2023-07-13T12:47:23;4.57;;;1.97;;
9102;SDS011;4587;51.434;6.788;2023-07-13T12:49:50;4.67;;;1.87;;
9102;SDS011;4587;51.434;6.788;2023-07-13T12:52:24;3.90;;;1.87;;
9102;SDS011;4587;51.434;6.788;2023-07-13T12:57:42;4.03;;;1.90;;
9102;SDS011;4587;51.434;6.788;2023-07-13T13:00:20;6.40;;;2.03;;
9102;SDS011;4587;51.434;6.788;2023-07-13T13:02:57;5.83;;;2.17;;
9102;SDS011;4587;51.434;6.788;2023-07-13T13:05:28;6.67;;;2.00;;
9102;SDS011;4587;51.434;6.788;2023-07-13T13:07:55;4.77;;;2.00;;
9102;SDS011;4587;51.434;6.788;2023-07-13T13:10:21;4.17;;;1.77;;
9102;SDS011;4587;51.434;6.788;2023-07-13T13:12:46;4.30;;;1.93;;
9102;SDS011;4587;51.434;6.788;2023-07-13T13:15:12;4.83;;;2.00;;
9102;SDS011;4587;51.434;6.788;2023-07-13T13:17:38;4.30;;;2.00;;
9102;SDS011;4587;51.434;6.788;2023-07-13T13:20:14;5.60;;;2.00;;
9102;SDS011;4587;51.434;6.788;2023-07-13T13:22:42;4.57;;;1.97;;
9102;SDS011;4587;51.434;6.788;2023-07-13T13:25:10;4.30;;;1.90;;
9102;SDS011;4587;51.434;6.788;2023-07-13T13:27:36;3.27;;;1.83;;
9102;SDS011;4587;51.434;6.788;2023-07-13T13:30:02;4.73;;;1.77;;
9102;SDS011;4587;51.434;6.788;2023-07-13T13:32:30;9.67;;;1.60;;
9102;SDS011;4587;51.434;6.788;2023-07-13T13:34:56;6.33;;;1.90;;
9102;SDS011;4587;51.434;6.788;2023-07-13T13:37:22;6.65;;;1.83;;
9102;SDS011;4587;51.434;6.788;2023-07-13T13:39:50;6.93;;;2.17;;
9102;SDS011;4587;51.434;6.788;2023-07-13T13:42:17;4.57;;;1.67;;
9102;SDS011;4587;51.434;6.788;2023-07-13T13:44:42;4.17;;;1.77;;
9102;SDS011;4587;51.434;6.788;2023-07-13T13:47:19;4.93;;;1.73;;
9102;SDS011;4587;51.434;6.788;2023-07-13T13:49:51;5.43;;;1.70;;
9102;SDS011;4587;51.434;6.788;2023-07-13T13:52:17;7.90;;;2.10;;
9102;SDS011;4587;51.434;6.788;2023-07-13T13:54:43;7.03;;;1.70;;
9102;SDS011;4587;51.434;6.788;2023-07-13T13:57:09;6.30;;;1.90;;
9102;SDS011;4587;51.434;6.788;2023-07-13T13:59:37;6.37;;;1.90;;
9102;SDS011;4587;51.434;6.788;2023-07-13T14:02:08;6.25;;;1.67;;
9102;SDS011;4587;51.434;6.788;2023-07-13T14:04:59;6.87;;;2.37;;
9102;SDS011;4587;51.434;6.788;2023-07-13T14:07:27;4.73;;;2.53;;
9102;SDS011;4587;51.434;6.788;2023-07-13T14:09:55;5.90;;;2.63;;
9102;SDS011;4587;51.434;6.788;2023-07-13T14:12:22;7.43;;;2.60;;
9102;SDS011;4587;51.434;6.788;2023-07-13T14:14:51;5.33;;;2.77;;
9102;SDS011;4587;51.434;6.788;2023-07-13T14:17:24;7.07;;;2.40;;
9102;SDS011;4587;51.434;6.788;2023-07-13T14:19:51;7.07;;;3.50;;
9102;SDS011;4587;51.434;6.788;2023-07-13T14:22:22;8.87;;;3.20;;
9102;SDS011;4587;51.434;6.788;2023-07-13T14:24:49;8.10;;;3.10;;
9102;SDS011;4587;51.434;6.788;2023-07-13T14:27:16;10.10;;;3.80;;
9102;SDS011;4587;51.434;6.788;2023-07-13T14:29:41;10.37;;;4.30;;
9102;SDS011;4587;51.434;6.788;2023-07-13T14:32:10;10.10;;;3.50;;
9102;SDS011;4587;51.434;6.788;2023-07-13T14:34:36;10.30;;;3.77;;
9102;SDS011;4587;51.434;6.788;2023-07-13T14:37:02;8.10;;;4.30;;
9102;SDS011;4587;51.434;6.788;2023-07-13T14:39:29;10.17;;;4.20;;
9102;SDS011;4587;51.434;6.788;2023-07-13T14:41:56;8.53;;;3.30;;
9102;SDS011;4587;51.434;6.788;2023-07-13T14:44:26;9.23;;;2.87;;
9102;SDS011;4587;51.434;6.788;2023-07-13T14:46:54;6.67;;;2.90;;
9102;SDS011;4587;51.434;6.788;2023-07-13T14:49:25;9.20;;;3.17;;
9102;SDS011;4587;51.434;6.788;2023-07-13T14:51:50;6.43;;;2.77;;
9102;SDS011;4587;51.434;6.788;2023-07-13T14:54:17;7.30;;;2.50;;
9102;SDS011;4587;51.434;6.788;2023-07-13T14:56:42;5.97;;;2.27;;
9102;SDS011;4587;51.434;6.788;2023-07-13T14:59:08;8.30;;;2.93;;
9102;SDS011;4587;51.434;6.788;2023-07-13T15:01:34;5.40;;;2.17;;
9102;SDS011;4587;51.434;6.788;2023-07-13T15:04:02;8.30;;;2.47;;
9102;SDS011;4587;51.434;6.788;2023-07-13T15:06:28;7.97;;;2.67;;
9102;SDS011;4587;51.434;6.788;2023-07-13T15:08:56;4.67;;;2.10;;
9102;SDS011;4587;51.434;6.788;2023-07-13T15:11:22;5.20;;;2.40;;
9102;SDS011;4587;51.434;6.788;2023-07-13T15:13:48;3.23;;;1.90;;
9102;SDS011;4587;51.434;6.788;2023-07-13T15:16:15;6.57;;;2.03;;
9102;SDS011;4587;51.434;6.788;2023-07-13T15:18:43;6.67;;;2.20;;
9102;SDS011;4587;51.434;6.788;2023-07-13T15:21:11;6.30;;;2.20;;
9102;SDS011;4587;51.434;6.788;2023-07-13T15:23:39;6.33;;;2.07;;
9102;SDS011;4587;51.434;6.788;2023-07-13T15:26:07;5.30;;;2.03;;
9102;SDS011;4587;51.434;6.788;2023-07-13T15:28:37;4.57;;;1.93;;
9102;SDS011;4587;51.434;6.788;2023-07-13T15:31:05;4.67;;;1.90;;
9102;SDS011;4587;51.434;6.788;2023-07-13T15:33:46;3.80;;;1.53;;
9102;SDS011;4587;51.434;6.788;2023-07-13T15:36:14;2.40;;;1.70;;
9102;SDS011;4587;51.434;6.788;2023-07-13T15:38:42;3.67;;;1.70;;
9102;SDS011;4587;51.434;6.788;2023-07-13T15:41:19;4.03;;;1.93;;
9102;SDS011;4587;51.434;6.788;2023-07-13T15:43:48;4.17;;;1.63;;
9102;SDS011;4587;51.434;6.788;2023-07-13T15:46:16;3.53;;;1.90;;
9102;SDS011;4587;51.434;6.788;2023-07-13T15:48:46;3.33;;;1.70;;
9102;SDS011;4587;51.434;6.788;2023-07-13T15:51:20;2.80;;;1.80;;
9102;SDS011;4587;51.434;6.788;2023-07-13T15:53:53;4.17;;;1.40;;
9102;SDS011;4587;51.434;6.788;2023-07-13T15:56:24;3.00;;;1.87;;
9102;SDS011;4587;51.434;6.788;2023-07-13T15:58:54;2.30;;;1.63;;
9102;SDS011;4587;51.434;6.788;2023-07-13T16:01:21;3.83;;;1.67;;